Ladle Cove, Canada
Current Conditions -  °F | °C
As of 8:00 AM on Thursday 23 Oct 2014 (Local Time) from CYQX Reporting Station
Broken Clouds Broken Clouds  
Wind Chill: 32°   Ceiling: 24000
Heat Index: 37°   Visibility: 20mi
Dew Point: 36°   Wind: 7mph
Humidity: 93%   Direction: 230°SW
Pressure: 30.39"   Gusts: NA
Location:  49.45°N, 54.05°W
Report Text: CYQX 231000Z 23006KT 20SM BKN240 BKN260 03/02 A3039 RMK CC6CI1 SC TR SLP296
Loading
Personal Weather Stations






























Interactive Weather Map
Tropical Storm Tracking
New forecast layout! Learn more

10-Day Weather Forecast

Advertisements
Track Severe Weather on mobile